FCBB/BZV METAR and TAF weather

Enter ICAO airport designator
Station Type Date Time Source
FCBB METAR 2019/04/16 13:00 UTC NOAA

FCBB 161300Z 23003KT 190V280 9999 SCT018 FEW028CB 31/23 Q1010 TEMPO TS


Station Type Date Time Source
FCBB Decoded METAR 2019/04/16 13:00 UTC NOAA

Brazzaville / Maya-Maya, Congo, Republic of the (FCBB) 04-15S 015-15E 316M
Apr 16, 2019 - 09:00 AM EDT / 2019.04.16 1300 UTC
Wind: from the SW (230 degrees) at 3 MPH (3 KT) (direction variable):0
Visibility: greater than 7 mile(s):0
Sky conditions: partly cloudy
Weather: Cumulonimbus clouds observed
Temperature: 87 F (31 C)
Heat index: 93.9 F (34.4 C):1
Dew Point: 73 F (23 C)
Relative Humidity: 62%
Pressure (altimeter): 29.83 in. Hg (1010 hPa)
ob: FCBB 161300Z 23003KT 190V280 9999 SCT018 FEW028CB 31/23 Q1010 TEMPO TS
cycle: 13

Station Type Date Time Source
FCBB TAF 2019/04/19 18:06 UTC NOAA

TAF TAF FCBB 191700Z 1918/2024 24004KT 8000 TS SCT018 BKN023 FEW030CB PROB40 1923/2003 4000 TSRA
BECMG 2004/2006 NSW FEW010 SCT020
BECMG 2012/2014 SCT020 FEW030CB PROB40 2015/2018 TS

Example: see airport list